sensor_id;sensor_type;location;lat;lon;timestamp;P1;durP1;ratioP1;P2;durP2;ratioP2
61389;SDS011;47260;48.274;19.814;2022-07-29T00:01:46;6.70;;;6.00;;
61389;SDS011;47260;48.274;19.814;2022-07-29T00:04:12;6.68;;;6.07;;
61389;SDS011;47260;48.274;19.814;2022-07-29T00:06:39;6.72;;;5.60;;
61389;SDS011;47260;48.274;19.814;2022-07-29T00:09:08;5.85;;;5.32;;
61389;SDS011;47260;48.274;19.814;2022-07-29T00:11:34;5.80;;;5.22;;
61389;SDS011;47260;48.274;19.814;2022-07-29T00:14:01;6.72;;;6.05;;
61389;SDS011;47260;48.274;19.814;2022-07-29T00:16:28;6.80;;;6.07;;
61389;SDS011;47260;48.274;19.814;2022-07-29T00:18:55;6.63;;;5.88;;
61389;SDS011;47260;48.274;19.814;2022-07-29T00:21:22;7.38;;;6.72;;
61389;SDS011;47260;48.274;19.814;2022-07-29T00:23:48;8.95;;;5.80;;
61389;SDS011;47260;48.274;19.814;2022-07-29T00:26:16;7.35;;;6.50;;
61389;SDS011;47260;48.274;19.814;2022-07-29T00:28:43;7.25;;;6.55;;
61389;SDS011;47260;48.274;19.814;2022-07-29T00:31:10;7.45;;;6.65;;
61389;SDS011;47260;48.274;19.814;2022-07-29T00:33:37;8.02;;;6.57;;
61389;SDS011;47260;48.274;19.814;2022-07-29T00:36:04;7.05;;;6.20;;
61389;SDS011;47260;48.274;19.814;2022-07-29T00:38:30;7.10;;;6.40;;
61389;SDS011;47260;48.274;19.814;2022-07-29T00:40:57;7.00;;;6.30;;
61389;SDS011;47260;48.274;19.814;2022-07-29T00:43:25;7.47;;;6.78;;
61389;SDS011;47260;48.274;19.814;2022-07-29T00:45:52;7.25;;;6.55;;
61389;SDS011;47260;48.274;19.814;2022-07-29T00:48:19;7.85;;;6.90;;
61389;SDS011;47260;48.274;19.814;2022-07-29T00:50:45;7.40;;;6.70;;
61389;SDS011;47260;48.274;19.814;2022-07-29T00:53:12;9.00;;;6.93;;
61389;SDS011;47260;48.274;19.814;2022-07-29T00:55:39;7.75;;;7.10;;
61389;SDS011;47260;48.274;19.814;2022-07-29T00:58:06;7.70;;;6.60;;
61389;SDS011;47260;48.274;19.814;2022-07-29T01:00:34;8.05;;;7.28;;
61389;SDS011;47260;48.274;19.814;2022-07-29T01:03:01;8.02;;;7.20;;
61389;SDS011;47260;48.274;19.814;2022-07-29T01:05:28;8.18;;;7.35;;
61389;SDS011;47260;48.274;19.814;2022-07-29T01:07:56;8.88;;;7.97;;
61389;SDS011;47260;48.274;19.814;2022-07-29T01:10:24;7.88;;;7.15;;
61389;SDS011;47260;48.274;19.814;2022-07-29T01:12:52;8.07;;;7.30;;
61389;SDS011;47260;48.274;19.814;2022-07-29T01:15:20;8.65;;;7.85;;
61389;SDS011;47260;48.274;19.814;2022-07-29T01:17:50;7.90;;;7.10;;
61389;SDS011;47260;48.274;19.814;2022-07-29T01:20:24;7.20;;;6.55;;
61389;SDS011;47260;48.274;19.814;2022-07-29T01:29:09;8.80;;;7.95;;
61389;SDS011;47260;48.274;19.814;2022-07-29T01:31:42;7.95;;;7.15;;
61389;SDS011;47260;48.274;19.814;2022-07-29T01:34:12;8.80;;;7.93;;
61389;SDS011;47260;48.274;19.814;2022-07-29T01:36:45;8.52;;;7.13;;
61389;SDS011;47260;48.274;19.814;2022-07-29T01:39:17;8.93;;;8.02;;
61389;SDS011;47260;48.274;19.814;2022-07-29T01:41:49;9.75;;;7.88;;
61389;SDS011;47260;48.274;19.814;2022-07-29T01:44:26;9.90;;;8.43;;
61389;SDS011;47260;48.274;19.814;2022-07-29T01:46:58;8.45;;;7.60;;
61389;SDS011;47260;48.274;19.814;2022-07-29T01:49:28;12.02;;;8.00;;
61389;SDS011;47260;48.274;19.814;2022-07-29T01:51:58;8.68;;;7.55;;
61389;SDS011;47260;48.274;19.814;2022-07-29T01:54:30;8.73;;;7.75;;
61389;SDS011;47260;48.274;19.814;2022-07-29T01:57:01;9.13;;;8.23;;
61389;SDS011;47260;48.274;19.814;2022-07-29T01:59:31;9.73;;;7.43;;
61389;SDS011;47260;48.274;19.814;2022-07-29T02:02:01;8.68;;;7.97;;
61389;SDS011;47260;48.274;19.814;2022-07-29T02:04:28;8.93;;;8.02;;
61389;SDS011;47260;48.274;19.814;2022-07-29T02:06:57;8.10;;;7.40;;
61389;SDS011;47260;48.274;19.814;2022-07-29T02:09:27;9.13;;;8.07;;
61389;SDS011;47260;48.274;19.814;2022-07-29T02:11:56;8.20;;;7.35;;
61389;SDS011;47260;48.274;19.814;2022-07-29T02:14:26;8.82;;;8.02;;
61389;SDS011;47260;48.274;19.814;2022-07-29T02:16:58;8.25;;;7.45;;
61389;SDS011;47260;48.274;19.814;2022-07-29T02:19:26;10.27;;;8.20;;
61389;SDS011;47260;48.274;19.814;2022-07-29T02:21:55;8.50;;;7.65;;
61389;SDS011;47260;48.274;19.814;2022-07-29T02:24:24;8.77;;;7.65;;
61389;SDS011;47260;48.274;19.814;2022-07-29T02:26:53;8.70;;;7.80;;
61389;SDS011;47260;48.274;19.814;2022-07-29T02:29:22;12.48;;;8.40;;
61389;SDS011;47260;48.274;19.814;2022-07-29T02:31:51;9.93;;;8.02;;
61389;SDS011;47260;48.274;19.814;2022-07-29T02:34:20;7.38;;;6.78;;
61389;SDS011;47260;48.274;19.814;2022-07-29T02:36:48;10.07;;;7.95;;
61389;SDS011;47260;48.274;19.814;2022-07-29T02:39:15;9.55;;;8.07;;
61389;SDS011;47260;48.274;19.814;2022-07-29T02:41:45;8.77;;;7.88;;
61389;SDS011;47260;48.274;19.814;2022-07-29T02:44:14;9.68;;;7.47;;
61389;SDS011;47260;48.274;19.814;2022-07-29T02:46:43;10.20;;;7.80;;
61389;SDS011;47260;48.274;19.814;2022-07-29T02:49:15;9.40;;;7.78;;
61389;SDS011;47260;48.274;19.814;2022-07-29T02:54:19;10.98;;;8.07;;
61389;SDS011;47260;48.274;19.814;2022-07-29T02:56:50;9.77;;;8.27;;
61389;SDS011;47260;48.274;19.814;2022-07-29T02:59:22;10.63;;;8.32;;
61389;SDS011;47260;48.274;19.814;2022-07-29T03:01:52;10.27;;;8.25;;
61389;SDS011;47260;48.274;19.814;2022-07-29T03:04:22;9.95;;;9.05;;
61389;SDS011;47260;48.274;19.814;2022-07-29T03:06:54;9.25;;;8.30;;
61389;SDS011;47260;48.274;19.814;2022-07-29T03:09:22;9.52;;;8.63;;
61389;SDS011;47260;48.274;19.814;2022-07-29T03:11:50;10.93;;;9.25;;
61389;SDS011;47260;48.274;19.814;2022-07-29T03:14:19;12.35;;;10.00;;
61389;SDS011;47260;48.274;19.814;2022-07-29T03:16:48;8.60;;;7.70;;
61389;SDS011;47260;48.274;19.814;2022-07-29T03:19:16;9.68;;;8.77;;
61389;SDS011;47260;48.274;19.814;2022-07-29T03:21:44;9.48;;;8.57;;
61389;SDS011;47260;48.274;19.814;2022-07-29T03:24:20;10.40;;;8.65;;
61389;SDS011;47260;48.274;19.814;2022-07-29T03:26:50;9.05;;;8.13;;
61389;SDS011;47260;48.274;19.814;2022-07-29T03:29:17;10.57;;;9.25;;
61389;SDS011;47260;48.274;19.814;2022-07-29T03:31:44;9.88;;;8.98;;
61389;SDS011;47260;48.274;19.814;2022-07-29T03:34:11;10.90;;;8.52;;
61389;SDS011;47260;48.274;19.814;2022-07-29T03:36:38;9.40;;;8.50;;
61389;SDS011;47260;48.274;19.814;2022-07-29T03:39:04;10.80;;;8.45;;
61389;SDS011;47260;48.274;19.814;2022-07-29T03:41:33;9.95;;;8.68;;
61389;SDS011;47260;48.274;19.814;2022-07-29T03:44:02;9.03;;;8.13;;
61389;SDS011;47260;48.274;19.814;2022-07-29T03:46:32;10.73;;;8.13;;
61389;SDS011;47260;48.274;19.814;2022-07-29T03:49:02;9.50;;;8.63;;
61389;SDS011;47260;48.274;19.814;2022-07-29T03:51:33;9.60;;;8.00;;
61389;SDS011;47260;48.274;19.814;2022-07-29T03:54:00;9.93;;;9.02;;
61389;SDS011;47260;48.274;19.814;2022-07-29T03:56:27;10.80;;;8.18;;
61389;SDS011;47260;48.274;19.814;2022-07-29T03:58:57;9.68;;;8.57;;
61389;SDS011;47260;48.274;19.814;2022-07-29T04:01:24;9.90;;;9.00;;
61389;SDS011;47260;48.274;19.814;2022-07-29T04:03:53;10.32;;;8.13;;
61389;SDS011;47260;48.274;19.814;2022-07-29T04:06:20;8.02;;;7.22;;
61389;SDS011;47260;48.274;19.814;2022-07-29T04:08:47;8.48;;;7.60;;
61389;SDS011;47260;48.274;19.814;2022-07-29T04:11:14;9.13;;;8.23;;
61389;SDS011;47260;48.274;19.814;2022-07-29T04:13:40;9.65;;;8.35;;
61389;SDS011;47260;48.274;19.814;2022-07-29T04:16:08;10.60;;;9.43;;
61389;SDS011;47260;48.274;19.814;2022-07-29T04:18:35;9.88;;;8.90;;
61389;SDS011;47260;48.274;19.814;2022-07-29T04:21:02;10.10;;;8.93;;
61389;SDS011;47260;48.274;19.814;2022-07-29T04:23:29;10.20;;;8.43;;
61389;SDS011;47260;48.274;19.814;2022-07-29T04:25:57;9.02;;;7.78;;
61389;SDS011;47260;48.274;19.814;2022-07-29T04:28:25;9.40;;;8.55;;
61389;SDS011;47260;48.274;19.814;2022-07-29T04:30:52;8.77;;;7.88;;
61389;SDS011;47260;48.274;19.814;2022-07-29T04:33:20;9.00;;;8.20;;
61389;SDS011;47260;48.274;19.814;2022-07-29T04:35:47;9.30;;;8.50;;
61389;SDS011;47260;48.274;19.814;2022-07-29T04:38:13;11.52;;;7.82;;
61389;SDS011;47260;48.274;19.814;2022-07-29T04:40:40;9.07;;;7.07;;
61389;SDS011;47260;48.274;19.814;2022-07-29T04:43:07;7.93;;;7.10;;
61389;SDS011;47260;48.274;19.814;2022-07-29T04:45:34;10.60;;;7.57;;
61389;SDS011;47260;48.274;19.814;2022-07-29T04:48:00;8.20;;;7.40;;
61389;SDS011;47260;48.274;19.814;2022-07-29T04:50:29;8.70;;;7.75;;
61389;SDS011;47260;48.274;19.814;2022-07-29T04:52:55;11.20;;;7.82;;
61389;SDS011;47260;48.274;19.814;2022-07-29T04:55:22;8.15;;;7.45;;
61389;SDS011;47260;48.274;19.814;2022-07-29T04:57:50;7.82;;;7.13;;
61389;SDS011;47260;48.274;19.814;2022-07-29T05:00:16;8.25;;;7.43;;
61389;SDS011;47260;48.274;19.814;2022-07-29T05:02:43;8.68;;;7.72;;
61389;SDS011;47260;48.274;19.814;2022-07-29T05:05:10;8.60;;;7.75;;
61389;SDS011;47260;48.274;19.814;2022-07-29T05:07:38;11.90;;;7.82;;
61389;SDS011;47260;48.274;19.814;2022-07-29T05:10:05;8.75;;;7.50;;
61389;SDS011;47260;48.274;19.814;2022-07-29T05:12:32;8.02;;;7.22;;
61389;SDS011;47260;48.274;19.814;2022-07-29T05:14:59;8.20;;;7.50;;
61389;SDS011;47260;48.274;19.814;2022-07-29T05:17:26;10.88;;;7.07;;
61389;SDS011;47260;48.274;19.814;2022-07-29T05:19:52;8.43;;;6.85;;
61389;SDS011;47260;48.274;19.814;2022-07-29T05:22:19;7.28;;;6.57;;
61389;SDS011;47260;48.274;19.814;2022-07-29T05:24:48;6.43;;;5.90;;
61389;SDS011;47260;48.274;19.814;2022-07-29T05:27:15;6.53;;;5.95;;
61389;SDS011;47260;48.274;19.814;2022-07-29T05:29:41;7.10;;;6.50;;
61389;SDS011;47260;48.274;19.814;2022-07-29T05:32:09;6.78;;;6.05;;
61389;SDS011;47260;48.274;19.814;2022-07-29T05:34:36;7.65;;;6.15;;
61389;SDS011;47260;48.274;19.814;2022-07-29T05:37:02;6.43;;;5.80;;
61389;SDS011;47260;48.274;19.814;2022-07-29T05:39:29;6.82;;;6.22;;
61389;SDS011;47260;48.274;19.814;2022-07-29T05:41:57;5.95;;;5.45;;
61389;SDS011;47260;48.274;19.814;2022-07-29T05:44:24;6.32;;;5.57;;
61389;SDS011;47260;48.274;19.814;2022-07-29T05:46:51;7.20;;;5.85;;
61389;SDS011;47260;48.274;19.814;2022-07-29T05:49:18;6.07;;;5.57;;
61389;SDS011;47260;48.274;19.814;2022-07-29T05:51:44;6.05;;;5.47;;
61389;SDS011;47260;48.274;19.814;2022-07-29T05:54:12;5.35;;;4.88;;
61389;SDS011;47260;48.274;19.814;2022-07-29T05:56:39;7.03;;;5.57;;
61389;SDS011;47260;48.274;19.814;2022-07-29T05:59:07;5.18;;;4.78;;
61389;SDS011;47260;48.274;19.814;2022-07-29T06:01:34;5.65;;;5.15;;
61389;SDS011;47260;48.274;19.814;2022-07-29T06:04:04;5.78;;;5.05;;
61389;SDS011;47260;48.274;19.814;2022-07-29T06:06:31;4.70;;;4.30;;
61389;SDS011;47260;48.274;19.814;2022-07-29T06:08:58;5.95;;;5.00;;
61389;SDS011;47260;48.274;19.814;2022-07-29T06:11:25;5.43;;;4.88;;
61389;SDS011;47260;48.274;19.814;2022-07-29T06:13:52;5.03;;;4.55;;
61389;SDS011;47260;48.274;19.814;2022-07-29T06:16:20;4.50;;;4.07;;
61389;SDS011;47260;48.274;19.814;2022-07-29T06:18:47;4.63;;;3.90;;
61389;SDS011;47260;48.274;19.814;2022-07-29T06:21:14;4.90;;;4.40;;
61389;SDS011;47260;48.274;19.814;2022-07-29T06:23:40;5.15;;;4.72;;
61389;SDS011;47260;48.274;19.814;2022-07-29T06:26:07;4.72;;;4.32;;
61389;SDS011;47260;48.274;19.814;2022-07-29T06:28:34;5.78;;;4.47;;
61389;SDS011;47260;48.274;19.814;2022-07-29T06:31:01;5.70;;;5.05;;
61389;SDS011;47260;48.274;19.814;2022-07-29T06:33:29;5.70;;;4.75;;
61389;SDS011;47260;48.274;19.814;2022-07-29T06:35:56;4.70;;;4.30;;
61389;SDS011;47260;48.274;19.814;2022-07-29T06:38:23;4.90;;;4.57;;
61389;SDS011;47260;48.274;19.814;2022-07-29T06:40:50;5.20;;;4.15;;
61389;SDS011;47260;48.274;19.814;2022-07-29T06:46:02;5.30;;;4.85;;
61389;SDS011;47260;48.274;19.814;2022-07-29T06:48:33;4.95;;;4.53;;
61389;SDS011;47260;48.274;19.814;2022-07-29T06:51:01;6.65;;;4.65;;
61389;SDS011;47260;48.274;19.814;2022-07-29T06:53:29;4.40;;;4.00;;
61389;SDS011;47260;48.274;19.814;2022-07-29T06:55:56;4.55;;;4.07;;
61389;SDS011;47260;48.274;19.814;2022-07-29T06:58:24;4.32;;;3.90;;
61389;SDS011;47260;48.274;19.814;2022-07-29T07:00:54;4.90;;;4.25;;
61389;SDS011;47260;48.274;19.814;2022-07-29T07:03:21;4.30;;;3.90;;
61389;SDS011;47260;48.274;19.814;2022-07-29T07:05:50;4.50;;;4.07;;
61389;SDS011;47260;48.274;19.814;2022-07-29T07:08:18;4.55;;;4.15;;
61389;SDS011;47260;48.274;19.814;2022-07-29T07:10:45;4.35;;;3.88;;
61389;SDS011;47260;48.274;19.814;2022-07-29T07:13:12;6.55;;;3.85;;
61389;SDS011;47260;48.274;19.814;2022-07-29T07:15:39;6.57;;;3.50;;
61389;SDS011;47260;48.274;19.814;2022-07-29T07:18:06;4.00;;;3.70;;
61389;SDS011;47260;48.274;19.814;2022-07-29T07:20:33;6.57;;;4.00;;
61389;SDS011;47260;48.274;19.814;2022-07-29T07:23:02;5.15;;;3.85;;
61389;SDS011;47260;48.274;19.814;2022-07-29T07:25:29;4.22;;;3.67;;
61389;SDS011;47260;48.274;19.814;2022-07-29T07:27:56;4.25;;;3.95;;
61389;SDS011;47260;48.274;19.814;2022-07-29T07:30:23;4.03;;;3.67;;
61389;SDS011;47260;48.274;19.814;2022-07-29T07:32:50;5.57;;;5.05;;
61389;SDS011;47260;48.274;19.814;2022-07-29T07:35:17;4.22;;;3.92;;
61389;SDS011;47260;48.274;19.814;2022-07-29T07:37:44;4.10;;;3.80;;
61389;SDS011;47260;48.274;19.814;2022-07-29T07:40:13;4.18;;;3.85;;
61389;SDS011;47260;48.274;19.814;2022-07-29T07:42:40;6.88;;;4.43;;
61389;SDS011;47260;48.274;19.814;2022-07-29T07:45:07;4.43;;;4.05;;
61389;SDS011;47260;48.274;19.814;2022-07-29T07:47:35;4.72;;;4.00;;
61389;SDS011;47260;48.274;19.814;2022-07-29T07:50:02;5.50;;;5.03;;
61389;SDS011;47260;48.274;19.814;2022-07-29T07:52:30;5.05;;;3.85;;
61389;SDS011;47260;48.274;19.814;2022-07-29T07:54:57;4.53;;;4.13;;
61389;SDS011;47260;48.274;19.814;2022-07-29T07:57:25;4.47;;;4.07;;
61389;SDS011;47260;48.274;19.814;2022-07-29T07:59:52;5.50;;;4.13;;
61389;SDS011;47260;48.274;19.814;2022-07-29T08:02:18;5.22;;;4.72;;
61389;SDS011;47260;48.274;19.814;2022-07-29T08:04:45;4.88;;;4.22;;
61389;SDS011;47260;48.274;19.814;2022-07-29T08:07:12;5.30;;;4.38;;
61389;SDS011;47260;48.274;19.814;2022-07-29T08:09:40;5.00;;;4.18;;
61389;SDS011;47260;48.274;19.814;2022-07-29T08:12:06;5.05;;;4.32;;
61389;SDS011;47260;48.274;19.814;2022-07-29T08:14:35;4.82;;;4.15;;
61389;SDS011;47260;48.274;19.814;2022-07-29T08:17:02;4.60;;;4.20;;
61389;SDS011;47260;48.274;19.814;2022-07-29T08:19:29;4.60;;;4.20;;
61389;SDS011;47260;48.274;19.814;2022-07-29T08:21:55;4.20;;;3.80;;
61389;SDS011;47260;48.274;19.814;2022-07-29T08:24:22;4.65;;;4.07;;
61389;SDS011;47260;48.274;19.814;2022-07-29T08:27:06;4.72;;;4.35;;
61389;SDS011;47260;48.274;19.814;2022-07-29T08:29:35;4.43;;;3.85;;
61389;SDS011;47260;48.274;19.814;2022-07-29T08:32:02;4.25;;;3.85;;
61389;SDS011;47260;48.274;19.814;2022-07-29T08:34:29;4.80;;;4.28;;
61389;SDS011;47260;48.274;19.814;2022-07-29T08:36:56;5.82;;;4.47;;
61389;SDS011;47260;48.274;19.814;2022-07-29T08:39:24;5.75;;;4.20;;
61389;SDS011;47260;48.274;19.814;2022-07-29T08:41:51;5.65;;;4.72;;
61389;SDS011;47260;48.274;19.814;2022-07-29T08:44:18;6.57;;;4.60;;
61389;SDS011;47260;48.274;19.814;2022-07-29T08:46:48;4.60;;;4.22;;
61389;SDS011;47260;48.274;19.814;2022-07-29T08:49:15;4.53;;;4.13;;
61389;SDS011;47260;48.274;19.814;2022-07-29T08:51:42;4.22;;;3.92;;
61389;SDS011;47260;48.274;19.814;2022-07-29T08:54:09;5.53;;;3.90;;
61389;SDS011;47260;48.274;19.814;2022-07-29T08:56:37;5.75;;;4.18;;
61389;SDS011;47260;48.274;19.814;2022-07-29T08:59:05;4.97;;;4.60;;
61389;SDS011;47260;48.274;19.814;2022-07-29T09:01:36;4.85;;;4.30;;
61389;SDS011;47260;48.274;19.814;2022-07-29T09:04:05;8.32;;;4.50;;
61389;SDS011;47260;48.274;19.814;2022-07-29T09:06:38;5.07;;;4.57;;
61389;SDS011;47260;48.274;19.814;2022-07-29T09:09:08;4.78;;;4.38;;
61389;SDS011;47260;48.274;19.814;2022-07-29T09:11:35;4.93;;;4.43;;
61389;SDS011;47260;48.274;19.814;2022-07-29T09:14:02;5.10;;;4.70;;
61389;SDS011;47260;48.274;19.814;2022-07-29T09:16:43;4.68;;;4.28;;
61389;SDS011;47260;48.274;19.814;2022-07-29T09:19:20;5.03;;;4.03;;
61389;SDS011;47260;48.274;19.814;2022-07-29T09:21:48;5.35;;;4.85;;
61389;SDS011;47260;48.274;19.814;2022-07-29T09:24:24;5.25;;;4.32;;
61389;SDS011;47260;48.274;19.814;2022-07-29T09:26:53;4.50;;;4.20;;
61389;SDS011;47260;48.274;19.814;2022-07-29T09:29:21;5.32;;;4.63;;
61389;SDS011;47260;48.274;19.814;2022-07-29T09:31:50;6.07;;;4.10;;
61389;SDS011;47260;48.274;19.814;2022-07-29T09:34:22;6.70;;;4.15;;
61389;SDS011;47260;48.274;19.814;2022-07-29T09:36:51;5.00;;;4.50;;
61389;SDS011;47260;48.274;19.814;2022-07-29T09:39:28;4.35;;;3.95;;
61389;SDS011;47260;48.274;19.814;2022-07-29T09:41:56;6.32;;;4.45;;
61389;SDS011;47260;48.274;19.814;2022-07-29T09:44:24;4.72;;;3.70;;
61389;SDS011;47260;48.274;19.814;2022-07-29T09:46:55;8.02;;;4.03;;
61389;SDS011;47260;48.274;19.814;2022-07-29T09:49:25;6.50;;;4.28;;
61389;SDS011;47260;48.274;19.814;2022-07-29T09:54:35;4.70;;;4.30;;
61389;SDS011;47260;48.274;19.814;2022-07-29T09:57:05;4.05;;;3.53;;
61389;SDS011;47260;48.274;19.814;2022-07-29T09:59:34;4.65;;;4.20;;
61389;SDS011;47260;48.274;19.814;2022-07-29T10:02:01;8.00;;;4.32;;
61389;SDS011;47260;48.274;19.814;2022-07-29T10:04:40;5.22;;;4.20;;
61389;SDS011;47260;48.274;19.814;2022-07-29T10:07:08;4.35;;;3.92;;
61389;SDS011;47260;48.274;19.814;2022-07-29T10:09:35;6.50;;;4.20;;
61389;SDS011;47260;48.274;19.814;2022-07-29T10:12:06;4.07;;;3.78;;
61389;SDS011;47260;48.274;19.814;2022-07-29T10:14:34;5.13;;;4.10;;
61389;SDS011;47260;48.274;19.814;2022-07-29T10:17:03;4.70;;;4.30;;
61389;SDS011;47260;48.274;19.814;2022-07-29T10:19:31;5.18;;;4.30;;
61389;SDS011;47260;48.274;19.814;2022-07-29T10:22:00;4.63;;;4.20;;
61389;SDS011;47260;48.274;19.814;2022-07-29T10:24:29;4.47;;;4.07;;
61389;SDS011;47260;48.274;19.814;2022-07-29T10:26:59;4.60;;;3.88;;
61389;SDS011;47260;48.274;19.814;2022-07-29T10:29:26;6.05;;;4.50;;
61389;SDS011;47260;48.274;19.814;2022-07-29T10:38:15;4.30;;;4.00;;
61389;SDS011;47260;48.274;19.814;2022-07-29T10:40:58;4.10;;;3.67;;
61389;SDS011;47260;48.274;19.814;2022-07-29T10:43:58;4.95;;;4.20;;
61389;SDS011;47260;48.274;19.814;2022-07-29T10:46:26;4.82;;;4.32;;
61389;SDS011;47260;48.274;19.814;2022-07-29T10:49:07;4.53;;;4.13;;
61389;SDS011;47260;48.274;19.814;2022-07-29T10:51:51;5.13;;;3.70;;
61389;SDS011;47260;48.274;19.814;2022-07-29T10:54:37;6.32;;;3.72;;
61389;SDS011;47260;48.274;19.814;2022-07-29T10:57:18;5.07;;;4.18;;
61389;SDS011;47260;48.274;19.814;2022-07-29T10:59:47;6.65;;;4.15;;
61389;SDS011;47260;48.274;19.814;2022-07-29T11:05:07;4.70;;;4.28;;
61389;SDS011;47260;48.274;19.814;2022-07-29T11:07:35;4.60;;;3.85;;
61389;SDS011;47260;48.274;19.814;2022-07-29T11:10:25;4.85;;;4.38;;
61389;SDS011;47260;48.274;19.814;2022-07-29T11:12:52;4.43;;;3.63;;
61389;SDS011;47260;48.274;19.814;2022-07-29T11:15:20;5.60;;;3.80;;
61389;SDS011;47260;48.274;19.814;2022-07-29T11:18:03;3.55;;;3.35;;
61389;SDS011;47260;48.274;19.814;2022-07-29T11:20:31;4.40;;;3.55;;
61389;SDS011;47260;48.274;19.814;2022-07-29T11:22:59;4.25;;;3.95;;
61389;SDS011;47260;48.274;19.814;2022-07-29T11:25:28;4.65;;;3.92;;
61389;SDS011;47260;48.274;19.814;2022-07-29T11:28:08;8.48;;;3.95;;
61389;SDS011;47260;48.274;19.814;2022-07-29T11:30:50;4.32;;;3.80;;
61389;SDS011;47260;48.274;19.814;2022-07-29T11:33:27;4.40;;;4.07;;
61389;SDS011;47260;48.274;19.814;2022-07-29T11:36:08;4.25;;;3.72;;
61389;SDS011;47260;48.274;19.814;2022-07-29T11:38:36;4.30;;;4.00;;
61389;SDS011;47260;48.274;19.814;2022-07-29T11:41:21;6.97;;;4.00;;
61389;SDS011;47260;48.274;19.814;2022-07-29T11:43:49;5.70;;;4.50;;
61389;SDS011;47260;48.274;19.814;2022-07-29T11:46:18;3.63;;;3.33;;
61389;SDS011;47260;48.274;19.814;2022-07-29T11:48:59;6.38;;;3.70;;
61389;SDS011;47260;48.274;19.814;2022-07-29T11:51:28;3.72;;;3.38;;
61389;SDS011;47260;48.274;19.814;2022-07-29T11:53:55;4.13;;;3.83;;
61389;SDS011;47260;48.274;19.814;2022-07-29T11:56:24;8.05;;;3.80;;
61389;SDS011;47260;48.274;19.814;2022-07-29T11:59:01;4.22;;;3.53;;
61389;SDS011;47260;48.274;19.814;2022-07-29T12:01:30;4.20;;;3.70;;
61389;SDS011;47260;48.274;19.814;2022-07-29T12:04:02;4.40;;;3.70;;
61389;SDS011;47260;48.274;19.814;2022-07-29T12:06:29;4.30;;;4.00;;
61389;SDS011;47260;48.274;19.814;2022-07-29T12:08:56;4.20;;;3.80;;
61389;SDS011;47260;48.274;19.814;2022-07-29T12:11:24;5.47;;;4.03;;
61389;SDS011;47260;48.274;19.814;2022-07-29T12:13:51;5.72;;;3.80;;
61389;SDS011;47260;48.274;19.814;2022-07-29T12:16:18;4.68;;;4.25;;
61389;SDS011;47260;48.274;19.814;2022-07-29T12:18:54;4.85;;;3.95;;
61389;SDS011;47260;48.274;19.814;2022-07-29T12:21:21;4.13;;;3.83;;
61389;SDS011;47260;48.274;19.814;2022-07-29T12:23:52;4.60;;;4.10;;
61389;SDS011;47260;48.274;19.814;2022-07-29T12:26:19;5.88;;;4.10;;
61389;SDS011;47260;48.274;19.814;2022-07-29T12:28:47;4.30;;;3.90;;
61389;SDS011;47260;48.274;19.814;2022-07-29T12:31:15;4.43;;;4.00;;
61389;SDS011;47260;48.274;19.814;2022-07-29T12:33:42;6.78;;;3.90;;
61389;SDS011;47260;48.274;19.814;2022-07-29T12:36:10;5.07;;;4.57;;
61389;SDS011;47260;48.274;19.814;2022-07-29T12:38:40;4.07;;;3.78;;
61389;SDS011;47260;48.274;19.814;2022-07-29T12:41:08;5.22;;;3.80;;
61389;SDS011;47260;48.274;19.814;2022-07-29T12:43:34;4.25;;;3.95;;
61389;SDS011;47260;48.274;19.814;2022-07-29T12:46:12;6.53;;;4.18;;
61389;SDS011;47260;48.274;19.814;2022-07-29T12:48:42;4.13;;;3.65;;
61389;SDS011;47260;48.274;19.814;2022-07-29T12:51:10;4.15;;;3.65;;
61389;SDS011;47260;48.274;19.814;2022-07-29T12:53:39;6.20;;;4.03;;
61389;SDS011;47260;48.274;19.814;2022-07-29T12:56:06;4.30;;;3.70;;
61389;SDS011;47260;48.274;19.814;2022-07-29T12:58:41;6.35;;;3.88;;
61389;SDS011;47260;48.274;19.814;2022-07-29T13:01:10;5.10;;;4.05;;
61389;SDS011;47260;48.274;19.814;2022-07-29T13:03:46;4.00;;;3.70;;
61389;SDS011;47260;48.274;19.814;2022-07-29T13:06:34;3.90;;;3.60;;
61389;SDS011;47260;48.274;19.814;2022-07-29T13:09:05;4.18;;;3.75;;
61389;SDS011;47260;48.274;19.814;2022-07-29T13:11:35;4.47;;;4.07;;
61389;SDS011;47260;48.274;19.814;2022-07-29T13:14:04;8.30;;;4.00;;
61389;SDS011;47260;48.274;19.814;2022-07-29T13:16:33;6.28;;;4.20;;
61389;SDS011;47260;48.274;19.814;2022-07-29T13:19:07;4.47;;;3.95;;
61389;SDS011;47260;48.274;19.814;2022-07-29T13:21:35;5.03;;;4.43;;
61389;SDS011;47260;48.274;19.814;2022-07-29T13:24:03;4.25;;;3.95;;
61389;SDS011;47260;48.274;19.814;2022-07-29T13:26:30;4.97;;;3.85;;
61389;SDS011;47260;48.274;19.814;2022-07-29T13:28:57;4.85;;;4.45;;
61389;SDS011;47260;48.274;19.814;2022-07-29T13:31:24;4.82;;;4.43;;
61389;SDS011;47260;48.274;19.814;2022-07-29T13:33:52;4.38;;;4.03;;
61389;SDS011;47260;48.274;19.814;2022-07-29T13:36:19;4.80;;;4.40;;
61389;SDS011;47260;48.274;19.814;2022-07-29T13:38:46;4.70;;;4.30;;
61389;SDS011;47260;48.274;19.814;2022-07-29T13:41:13;5.95;;;4.45;;
61389;SDS011;47260;48.274;19.814;2022-07-29T13:43:39;4.47;;;3.92;;
61389;SDS011;47260;48.274;19.814;2022-07-29T13:46:06;5.97;;;4.05;;
61389;SDS011;47260;48.274;19.814;2022-07-29T13:48:33;8.43;;;4.55;;
61389;SDS011;47260;48.274;19.814;2022-07-29T13:51:01;6.43;;;5.85;;
61389;SDS011;47260;48.274;19.814;2022-07-29T13:53:28;6.65;;;6.05;;
61389;SDS011;47260;48.274;19.814;2022-07-29T13:55:55;5.85;;;5.25;;
61389;SDS011;47260;48.274;19.814;2022-07-29T13:58:21;5.40;;;4.35;;
61389;SDS011;47260;48.274;19.814;2022-07-29T14:00:48;5.03;;;4.32;;
61389;SDS011;47260;48.274;19.814;2022-07-29T14:03:15;7.90;;;7.07;;
61389;SDS011;47260;48.274;19.814;2022-07-29T14:05:42;6.40;;;5.80;;
61389;SDS011;47260;48.274;19.814;2022-07-29T14:08:10;12.00;;;10.90;;
61389;SDS011;47260;48.274;19.814;2022-07-29T14:10:37;5.80;;;5.20;;
61389;SDS011;47260;48.274;19.814;2022-07-29T14:13:03;6.10;;;4.35;;
61389;SDS011;47260;48.274;19.814;2022-07-29T14:15:30;4.32;;;3.97;;
61389;SDS011;47260;48.274;19.814;2022-07-29T14:17:57;5.82;;;4.07;;
61389;SDS011;47260;48.274;19.814;2022-07-29T14:20:24;5.38;;;4.97;;
61389;SDS011;47260;48.274;19.814;2022-07-29T14:22:50;8.95;;;8.25;;
61389;SDS011;47260;48.274;19.814;2022-07-29T14:25:18;7.68;;;5.68;;
61389;SDS011;47260;48.274;19.814;2022-07-29T14:27:45;4.60;;;4.20;;
61389;SDS011;47260;48.274;19.814;2022-07-29T14:30:12;5.88;;;4.38;;
61389;SDS011;47260;48.274;19.814;2022-07-29T14:32:39;4.93;;;4.43;;
61389;SDS011;47260;48.274;19.814;2022-07-29T14:35:06;3.55;;;3.25;;
61389;SDS011;47260;48.274;19.814;2022-07-29T14:37:34;4.53;;;3.92;;
61389;SDS011;47260;48.274;19.814;2022-07-29T14:40:01;4.20;;;3.90;;
61389;SDS011;47260;48.274;19.814;2022-07-29T14:42:30;5.72;;;3.97;;
61389;SDS011;47260;48.274;19.814;2022-07-29T14:44:57;5.50;;;4.40;;
61389;SDS011;47260;48.274;19.814;2022-07-29T14:47:24;5.10;;;4.60;;
61389;SDS011;47260;48.274;19.814;2022-07-29T14:49:50;5.97;;;4.72;;
61389;SDS011;47260;48.274;19.814;2022-07-29T14:52:17;5.50;;;4.68;;
61389;SDS011;47260;48.274;19.814;2022-07-29T14:54:47;4.35;;;3.92;;
61389;SDS011;47260;48.274;19.814;2022-07-29T14:57:14;5.60;;;4.53;;
61389;SDS011;47260;48.274;19.814;2022-07-29T14:59:43;5.35;;;4.13;;
61389;SDS011;47260;48.274;19.814;2022-07-29T15:02:09;4.55;;;4.20;;
61389;SDS011;47260;48.274;19.814;2022-07-29T15:04:36;5.82;;;4.70;;
61389;SDS011;47260;48.274;19.814;2022-07-29T15:07:03;4.32;;;3.92;;